createdAt,value
2023-05-16T00:01:30.099Z,12.15
2023-05-16T00:03:59.627Z,13.90
2023-05-16T00:06:27.488Z,14.38
2023-05-16T00:08:55.209Z,14.27
2023-05-16T00:11:23.189Z,15.82
2023-05-16T00:13:51.563Z,16.30
2023-05-16T00:16:21.594Z,16.85
2023-05-16T00:18:49.818Z,17.02
2023-05-16T00:21:20.957Z,18.15
2023-05-16T00:23:50.021Z,17.38
2023-05-16T00:26:17.697Z,15.98
2023-05-16T00:28:45.553Z,16.10
2023-05-16T00:31:13.344Z,15.50
2023-05-16T00:33:41.140Z,15.68
2023-05-16T00:36:09.285Z,17.98
2023-05-16T00:38:38.336Z,17.77
2023-05-16T00:41:06.221Z,19.42
2023-05-16T00:43:34.019Z,19.45
2023-05-16T00:46:01.923Z,20.55
2023-05-16T00:48:29.751Z,21.33
2023-05-16T00:50:57.777Z,23.95
2023-05-16T00:53:26.156Z,23.52
2023-05-16T00:55:56.906Z,24.95
2023-05-16T00:58:25.763Z,25.63
2023-05-16T01:00:53.999Z,22.70
2023-05-16T01:03:22.215Z,24.45
2023-05-16T01:05:51.004Z,24.08
2023-05-16T01:08:19.222Z,26.45
2023-05-16T01:11:01.470Z,25.33
2023-05-16T01:13:36.785Z,24.25
2023-05-16T01:16:10.756Z,24.05
2023-05-16T01:18:48.306Z,24.30
2023-05-16T01:21:21.515Z,24.85
2023-05-16T01:23:54.354Z,24.48
2023-05-16T01:26:26.549Z,24.73
2023-05-16T01:28:55.326Z,23.85
2023-05-16T01:31:24.128Z,24.58
2023-05-16T01:33:52.022Z,25.30
2023-05-16T01:36:26.305Z,25.33
2023-05-16T01:39:07.772Z,25.88
2023-05-16T01:41:44.392Z,23.80
2023-05-16T01:44:19.402Z,25.63
2023-05-16T01:46:49.210Z,25.20
2023-05-16T01:49:25.910Z,24.73
2023-05-16T01:51:58.077Z,23.95
2023-05-16T01:54:27.298Z,23.08
2023-05-16T01:56:57.917Z,24.60
2023-05-16T01:59:26.528Z,23.33
2023-05-16T02:01:55.339Z,23.42
2023-05-16T02:04:24.213Z,22.23
2023-05-16T02:06:52.394Z,24.42
2023-05-16T02:09:20.137Z,24.67
2023-05-16T02:11:47.940Z,22.27
2023-05-16T02:14:17.050Z,23.52
2023-05-16T02:16:44.834Z,24.48
2023-05-16T02:19:12.762Z,24.05
2023-05-16T02:21:40.608Z,24.80
2023-05-16T02:24:08.585Z,24.40
2023-05-16T02:26:36.289Z,22.85
2023-05-16T02:29:04.093Z,23.35
2023-05-16T02:31:34.714Z,23.77
2023-05-16T02:34:03.614Z,24.20
2023-05-16T02:36:32.038Z,22.45
2023-05-16T02:38:59.878Z,23.02
2023-05-16T02:41:27.895Z,23.52
2023-05-16T02:43:55.785Z,23.17
2023-05-16T02:46:27.668Z,21.83
2023-05-16T02:48:57.130Z,22.00
2023-05-16T02:51:27.554Z,21.55
2023-05-16T02:53:56.908Z,20.27
2023-05-16T02:56:24.769Z,22.25
2023-05-16T02:58:52.696Z,22.10
2023-05-16T03:01:20.552Z,20.70
2023-05-16T03:03:48.435Z,20.13
2023-05-16T03:06:17.819Z,20.88
2023-05-16T03:08:45.676Z,19.48
2023-05-16T03:11:13.484Z,19.00
2023-05-16T03:13:41.716Z,16.65
2023-05-16T03:16:09.541Z,16.02
2023-05-16T03:18:37.346Z,16.42
2023-05-16T03:21:05.497Z,17.50
2023-05-16T03:23:34.598Z,16.77
2023-05-16T03:26:02.336Z,16.30
2023-05-16T03:28:30.091Z,18.15
2023-05-16T03:30:58.638Z,15.88
2023-05-16T03:33:26.309Z,16.15
2023-05-16T03:35:54.060Z,14.68
2023-05-16T03:38:21.796Z,14.90
2023-05-16T03:40:51.304Z,14.35
2023-05-16T03:43:19.037Z,15.65
2023-05-16T03:45:47.006Z,13.35
2023-05-16T03:48:14.821Z,14.55
2023-05-16T03:50:42.640Z,14.50
2023-05-16T03:53:10.792Z,14.90
2023-05-16T03:55:38.888Z,14.60
2023-05-16T03:58:08.304Z,13.95
2023-05-16T04:00:36.681Z,14.45
2023-05-16T04:03:05.026Z,14.68
2023-05-16T04:05:32.913Z,14.15
2023-05-16T04:08:00.747Z,13.68
2023-05-16T04:10:29.052Z,12.55
2023-05-16T04:12:56.802Z,13.88
2023-05-16T04:15:26.330Z,14.30
2023-05-16T04:17:54.301Z,14.30
2023-05-16T04:20:22.116Z,12.32
2023-05-16T04:22:50.108Z,12.95
2023-05-16T04:25:18.114Z,13.15
2023-05-16T04:27:45.888Z,13.75
2023-05-16T04:30:14.557Z,12.90
2023-05-16T04:32:44.062Z,12.32
2023-05-16T04:35:12.016Z,14.82
2023-05-16T04:37:39.832Z,16.23
2023-05-16T04:40:09.791Z,14.00
2023-05-16T04:42:37.519Z,14.52
2023-05-16T04:45:06.675Z,13.50
2023-05-16T04:47:34.540Z,13.48
2023-05-16T04:50:03.888Z,12.38
2023-05-16T04:52:31.622Z,13.93
2023-05-16T04:55:00.441Z,14.65
2023-05-16T04:57:28.201Z,15.57
2023-05-16T04:59:56.269Z,16.42
2023-05-16T05:02:24.104Z,14.43
2023-05-16T05:04:52.350Z,15.45
2023-05-16T05:07:21.452Z,13.45
2023-05-16T05:09:49.148Z,13.95
2023-05-16T05:12:16.951Z,16.85
2023-05-16T05:14:44.696Z,13.57
2023-05-16T05:17:12.432Z,12.75
2023-05-16T05:19:40.559Z,13.55
2023-05-16T05:22:08.476Z,12.93
2023-05-16T05:24:37.612Z,12.02
2023-05-16T05:27:05.606Z,15.38
2023-05-16T05:29:33.808Z,15.10
2023-05-16T05:32:01.641Z,15.80
2023-05-16T05:34:29.548Z,12.38
2023-05-16T05:36:57.477Z,12.52
2023-05-16T05:39:25.788Z,12.38
2023-05-16T05:41:54.917Z,10.80
2023-05-16T05:44:22.720Z,11.93
2023-05-16T05:46:51.193Z,11.50
2023-05-16T05:49:18.973Z,11.98
2023-05-16T05:51:46.785Z,11.52
2023-05-16T05:54:14.941Z,10.85
2023-05-16T05:56:42.672Z,11.50
2023-05-16T05:59:12.021Z,10.90
2023-05-16T06:01:40.014Z,9.65
2023-05-16T06:04:07.781Z,8.93
2023-05-16T06:06:35.597Z,8.20
2023-05-16T06:09:03.451Z,9.35
2023-05-16T06:11:31.814Z,7.85
2023-05-16T06:13:59.514Z,7.18
2023-05-16T06:16:28.884Z,6.43
2023-05-16T06:18:56.691Z,5.25
2023-05-16T06:21:24.519Z,5.00
2023-05-16T06:23:52.321Z,5.10
2023-05-16T06:26:20.354Z,4.97
2023-05-16T06:28:48.134Z,4.20
2023-05-16T06:31:16.039Z,5.78
2023-05-16T06:33:45.883Z,4.68
2023-05-16T06:36:13.589Z,3.90
2023-05-16T06:38:41.276Z,3.20
2023-05-16T06:41:09.089Z,3.25
2023-05-16T06:43:36.969Z,3.10
2023-05-16T06:46:05.037Z,3.22
2023-05-16T06:48:32.922Z,3.30
2023-05-16T06:51:02.075Z,2.80
2023-05-16T06:53:29.890Z,3.20
2023-05-16T06:55:57.678Z,3.45
2023-05-16T06:58:25.528Z,2.45
2023-05-16T07:00:53.392Z,3.17
2023-05-16T07:03:21.418Z,3.42
2023-05-16T07:05:51.549Z,4.30
2023-05-16T07:08:20.684Z,2.55
2023-05-16T07:10:48.428Z,2.70
2023-05-16T07:13:16.225Z,2.33
2023-05-16T07:15:44.104Z,1.85
2023-05-16T07:18:12.016Z,1.98
2023-05-16T07:20:39.925Z,1.92
2023-05-16T07:23:07.732Z,3.40
2023-05-16T07:25:37.782Z,2.17
2023-05-16T07:28:05.862Z,2.78
2023-05-16T07:30:34.676Z,1.90
2023-05-16T07:33:02.630Z,2.00
2023-05-16T07:35:30.524Z,1.77
2023-05-16T07:37:58.430Z,1.90
2023-05-16T07:40:29.183Z,1.65
2023-05-16T07:42:58.408Z,1.60
2023-05-16T07:45:26.536Z,1.25
2023-05-16T07:47:54.671Z,1.48
2023-05-16T07:50:22.482Z,1.35
2023-05-16T07:52:50.205Z,1.58
2023-05-16T07:55:18.072Z,1.20
2023-05-16T07:57:46.033Z,2.13
2023-05-16T08:00:16.402Z,1.70
2023-05-16T08:02:46.240Z,1.23
2023-05-16T08:05:16.033Z,1.65
2023-05-16T08:07:45.865Z,1.75
2023-05-16T08:10:15.777Z,1.30
2023-05-16T08:12:45.440Z,1.50
2023-05-16T08:15:16.955Z,1.05
2023-05-16T08:17:46.772Z,0.90
2023-05-16T08:20:16.392Z,1.35
2023-05-16T08:22:46.245Z,0.80
2023-05-16T08:25:15.996Z,0.90
2023-05-16T08:27:47.395Z,0.80
2023-05-16T08:30:18.803Z,1.13
2023-05-16T08:32:48.651Z,0.70
2023-05-16T08:35:18.581Z,0.57
2023-05-16T08:37:48.475Z,0.60
2023-05-16T08:40:18.579Z,1.38
2023-05-16T08:42:48.670Z,0.90
2023-05-16T08:45:20.078Z,0.60
2023-05-16T08:47:52.596Z,0.80
2023-05-16T08:50:22.719Z,0.52
2023-05-16T08:52:55.783Z,0.60
2023-05-16T08:55:27.317Z,0.70
2023-05-16T08:57:55.803Z,0.52
2023-05-16T09:00:25.912Z,0.85
2023-05-16T09:02:54.209Z,0.82
2023-05-16T09:05:26.193Z,1.00
2023-05-16T09:07:54.323Z,0.90
2023-05-16T09:10:22.694Z,0.80
2023-05-16T09:12:50.905Z,0.80
2023-05-16T09:15:21.396Z,0.60
2023-05-16T09:17:50.783Z,0.80
2023-05-16T09:20:20.211Z,0.80
2023-05-16T09:22:55.542Z,0.80
2023-05-16T09:27:56.452Z,0.90
2023-05-16T09:30:28.354Z,0.93
2023-05-16T09:32:57.573Z,0.75
2023-05-16T09:35:39.929Z,0.73
2023-05-16T09:38:16.168Z,0.50
2023-05-16T09:40:44.310Z,1.52
2023-05-16T09:43:16.474Z,0.50
2023-05-16T09:45:47.796Z,0.30
2023-05-16T09:48:18.069Z,0.70
2023-05-16T09:50:52.449Z,0.40
2023-05-16T09:53:27.505Z,0.25
2023-05-16T09:56:03.384Z,0.30
2023-05-16T09:58:32.604Z,0.43
2023-05-16T10:01:00.799Z,0.47
2023-05-16T10:03:30.640Z,0.38
2023-05-16T10:05:59.146Z,0.40
2023-05-16T10:08:27.664Z,0.40
2023-05-16T10:10:57.210Z,0.22
2023-05-16T10:13:29.205Z,0.30
2023-05-16T10:15:58.419Z,0.52
2023-05-16T10:18:30.862Z,0.30
2023-05-16T10:21:08.345Z,0.60
2023-05-16T10:23:42.307Z,0.35
2023-05-16T10:26:10.708Z,0.47
2023-05-16T10:28:39.016Z,0.50
2023-05-16T10:31:08.377Z,0.35
2023-05-16T10:33:38.749Z,0.40
2023-05-16T10:38:42.419Z,0.30
2023-05-16T10:41:11.123Z,0.43
2023-05-16T10:43:39.032Z,0.50
2023-05-16T10:46:09.672Z,0.55
2023-05-16T10:48:40.187Z,0.65
2023-05-16T10:51:35.402Z,0.52
2023-05-16T10:54:07.621Z,0.63
2023-05-16T10:56:35.815Z,0.93
2023-05-16T10:59:04.754Z,1.10
2023-05-16T11:01:34.800Z,0.85
2023-05-16T11:04:06.913Z,0.60
2023-05-16T11:06:36.357Z,0.77
2023-05-16T11:09:12.744Z,0.75
2023-05-16T11:11:45.613Z,0.77
2023-05-16T11:14:22.046Z,0.50
2023-05-16T11:16:51.719Z,0.80
2023-05-16T11:19:40.712Z,0.90
2023-05-16T11:22:10.065Z,0.70
2023-05-16T11:24:39.260Z,0.63
2023-05-16T11:27:07.774Z,1.42
2023-05-16T11:29:37.358Z,2.35
2023-05-16T11:32:06.340Z,0.73
2023-05-16T11:34:39.607Z,1.23
2023-05-16T11:37:07.499Z,0.60
2023-05-16T11:39:35.499Z,1.23
2023-05-16T11:42:03.397Z,0.95
2023-05-16T11:44:32.001Z,1.85
2023-05-16T11:47:04.159Z,0.80
2023-05-16T11:49:33.183Z,1.00
2023-05-16T11:52:02.319Z,1.27
2023-05-16T11:54:30.192Z,1.13
2023-05-16T11:56:58.341Z,0.90
2023-05-16T11:59:26.416Z,1.00
2023-05-16T12:01:54.221Z,0.80
2023-05-16T12:04:23.049Z,1.00
2023-05-16T12:07:01.247Z,0.82
2023-05-16T12:09:30.852Z,1.63
2023-05-16T12:11:58.762Z,1.20
2023-05-16T12:14:27.060Z,1.33
2023-05-16T12:16:55.524Z,1.42
2023-05-16T12:19:23.622Z,1.15
2023-05-16T12:21:54.313Z,1.25
2023-05-16T12:24:22.652Z,1.08
2023-05-16T12:26:54.801Z,0.90
2023-05-16T12:29:25.178Z,1.38
2023-05-16T12:31:54.813Z,1.52
2023-05-16T12:34:23.242Z,1.20
2023-05-16T12:36:54.976Z,1.30
2023-05-16T12:39:24.035Z,1.40
2023-05-16T12:41:53.235Z,1.15
2023-05-16T12:44:23.478Z,1.60
2023-05-16T12:46:52.702Z,1.40
2023-05-16T12:49:23.941Z,2.00
2023-05-16T12:51:52.550Z,3.08
2023-05-16T12:54:22.772Z,1.58
2023-05-16T12:56:50.961Z,2.63
2023-05-16T12:59:20.480Z,1.15
2023-05-16T13:01:48.405Z,1.88
2023-05-16T13:04:19.168Z,1.88
2023-05-16T13:06:57.363Z,2.17
2023-05-16T13:09:28.900Z,2.45
2023-05-16T13:11:59.600Z,1.60
2023-05-16T13:14:28.960Z,1.02
2023-05-16T13:16:56.806Z,1.63
2023-05-16T13:19:24.744Z,2.20
2023-05-16T13:21:52.549Z,1.65
2023-05-16T13:24:20.320Z,1.80
2023-05-16T13:26:48.097Z,1.50
2023-05-16T13:29:16.065Z,1.98
2023-05-16T13:31:45.489Z,2.30
2023-05-16T13:34:13.384Z,1.20
2023-05-16T13:36:53.000Z,1.50
2023-05-16T13:39:22.457Z,1.40
2023-05-16T13:41:50.637Z,1.40
2023-05-16T13:44:19.026Z,1.90
2023-05-16T13:46:48.531Z,1.20
2023-05-16T13:49:16.277Z,1.75
2023-05-16T13:51:44.214Z,1.60
2023-05-16T13:54:12.333Z,1.75
2023-05-16T13:56:40.202Z,1.13
2023-05-16T13:59:09.629Z,1.05
2023-05-16T14:01:38.808Z,1.00
2023-05-16T14:04:08.420Z,1.45
2023-05-16T14:06:36.318Z,1.35
2023-05-16T14:09:04.404Z,1.45
2023-05-16T14:11:32.218Z,1.55
2023-05-16T14:14:00.057Z,1.15
2023-05-16T14:16:28.046Z,1.77
2023-05-16T14:18:55.876Z,2.50
2023-05-16T14:21:25.075Z,0.82
2023-05-16T14:23:52.890Z,1.05
2023-05-16T14:26:22.578Z,1.73
2023-05-16T14:28:50.762Z,1.10
2023-05-16T14:31:18.785Z,1.05
2023-05-16T14:33:46.782Z,2.03
2023-05-16T14:36:15.035Z,1.40
2023-05-16T14:38:44.184Z,1.50
2023-05-16T14:41:11.965Z,0.90
2023-05-16T14:43:39.795Z,1.10
2023-05-16T14:46:07.592Z,1.27
2023-05-16T14:48:37.585Z,1.10
2023-05-16T14:51:05.841Z,1.42
2023-05-16T14:53:33.797Z,1.00
2023-05-16T14:56:03.899Z,1.30
2023-05-16T14:58:31.786Z,1.30
2023-05-16T15:00:59.625Z,1.30
2023-05-16T15:03:27.467Z,1.02
2023-05-16T15:05:55.655Z,1.33
2023-05-16T15:08:24.580Z,1.90
2023-05-16T15:10:52.394Z,1.40
2023-05-16T15:13:21.513Z,1.63
2023-05-16T15:15:49.359Z,3.72
2023-05-16T15:18:17.249Z,1.50
2023-05-16T15:20:45.299Z,3.28
2023-05-16T15:23:13.160Z,1.73
2023-05-16T15:25:41.008Z,1.25
2023-05-16T15:28:08.761Z,0.90
2023-05-16T15:30:37.938Z,1.00
2023-05-16T15:33:05.754Z,1.58
2023-05-16T15:35:33.619Z,1.65
2023-05-16T15:38:04.250Z,1.20
2023-05-16T15:40:32.032Z,2.50
2023-05-16T15:42:59.924Z,1.45
2023-05-16T15:45:27.873Z,3.40
2023-05-16T15:47:57.453Z,2.22
2023-05-16T15:50:25.584Z,1.27
2023-05-16T15:52:53.387Z,1.25
2023-05-16T15:55:22.000Z,1.30
2023-05-16T15:57:49.818Z,1.02
2023-05-16T16:00:18.461Z,1.17
2023-05-16T16:02:48.082Z,3.13
2023-05-16T16:05:17.522Z,1.50
2023-05-16T16:07:45.339Z,0.80
2023-05-16T16:10:13.523Z,1.55
2023-05-16T16:12:41.711Z,0.95
2023-05-16T16:15:11.792Z,1.02
2023-05-16T16:17:39.620Z,0.73
2023-05-16T16:20:08.254Z,1.25
2023-05-16T16:22:37.400Z,1.33
2023-05-16T16:25:05.933Z,1.05
2023-05-16T16:27:33.840Z,1.48
2023-05-16T16:30:01.701Z,1.10
2023-05-16T16:32:29.602Z,1.67
2023-05-16T16:34:57.638Z,1.63
2023-05-16T16:37:25.652Z,1.13
2023-05-16T16:39:54.799Z,1.38
2023-05-16T16:42:25.086Z,1.15
2023-05-16T16:44:53.612Z,0.98
2023-05-16T16:47:22.992Z,0.80
2023-05-16T16:49:51.339Z,1.02
2023-05-16T16:52:19.783Z,0.93
2023-05-16T16:54:47.668Z,0.73
2023-05-16T16:57:16.837Z,0.85
2023-05-16T16:59:46.515Z,0.98
2023-05-16T17:02:14.475Z,1.35
2023-05-16T17:04:42.463Z,1.20
2023-05-16T17:07:10.224Z,0.70
2023-05-16T17:09:39.432Z,2.00
2023-05-16T17:12:14.762Z,0.90
2023-05-16T17:14:44.096Z,0.60
2023-05-16T17:17:12.000Z,0.60
2023-05-16T17:19:39.836Z,1.48
2023-05-16T17:22:08.536Z,0.93
2023-05-16T17:24:36.447Z,1.45
2023-05-16T17:27:04.758Z,0.90
2023-05-16T17:29:32.510Z,1.05
2023-05-16T17:32:01.652Z,0.63
2023-05-16T17:34:29.531Z,0.90
2023-05-16T17:36:57.294Z,1.83
2023-05-16T17:39:25.139Z,1.60
2023-05-16T17:41:54.195Z,1.35
2023-05-16T17:44:22.012Z,1.40
2023-05-16T17:46:49.995Z,0.70
2023-05-16T17:49:19.162Z,1.30
2023-05-16T17:51:48.274Z,0.73
2023-05-16T17:54:17.016Z,1.92
2023-05-16T17:56:45.654Z,1.00
2023-05-16T17:59:14.743Z,0.98
2023-05-16T18:01:43.360Z,1.58
2023-05-16T18:04:11.618Z,1.00
2023-05-16T18:06:41.478Z,0.98
2023-05-16T18:09:10.347Z,1.13
2023-05-16T18:11:40.472Z,1.20
2023-05-16T18:14:09.488Z,1.45
2023-05-16T18:16:37.446Z,1.33
2023-05-16T18:19:05.633Z,1.30
2023-05-16T18:21:33.528Z,0.93
2023-05-16T18:24:02.701Z,1.08
2023-05-16T18:26:30.869Z,1.40
2023-05-16T18:28:59.409Z,1.27
2023-05-16T18:31:27.194Z,0.88
2023-05-16T18:33:54.964Z,0.70
2023-05-16T18:36:22.723Z,1.00
2023-05-16T18:38:50.609Z,1.40
2023-05-16T18:41:19.849Z,1.35
2023-05-16T18:43:47.627Z,0.70
2023-05-16T18:46:15.388Z,1.00
2023-05-16T18:48:43.216Z,1.15
2023-05-16T18:51:11.125Z,1.42
2023-05-16T18:53:39.087Z,1.02
2023-05-16T18:56:06.889Z,2.03
2023-05-16T18:58:36.702Z,0.82
2023-05-16T19:01:05.192Z,1.52
2023-05-16T19:03:33.162Z,1.20
2023-05-16T19:06:01.267Z,1.20
2023-05-16T19:08:37.014Z,1.00
2023-05-16T19:11:14.754Z,1.00
2023-05-16T19:13:44.037Z,1.25
2023-05-16T19:16:12.129Z,1.25
2023-05-16T19:18:40.313Z,0.80
2023-05-16T19:21:10.833Z,0.90
2023-05-16T19:23:38.759Z,1.60
2023-05-16T19:26:06.569Z,0.80
2023-05-16T19:28:34.677Z,1.00
2023-05-16T19:31:03.949Z,0.98
2023-05-16T19:33:31.899Z,1.05
2023-05-16T19:36:00.167Z,1.88
2023-05-16T19:38:28.026Z,2.75
2023-05-16T19:40:55.884Z,1.48
2023-05-16T19:43:24.080Z,1.48
2023-05-16T19:45:52.031Z,1.60
2023-05-16T19:48:21.257Z,1.60
2023-05-16T19:50:49.070Z,1.98
2023-05-16T19:53:16.799Z,1.20
2023-05-16T19:55:46.600Z,1.30
2023-05-16T19:58:14.376Z,1.13
2023-05-16T20:00:42.429Z,2.28
2023-05-16T20:03:11.716Z,2.47
2023-05-16T20:05:41.007Z,1.13
2023-05-16T20:08:09.362Z,1.00
2023-05-16T20:10:37.096Z,1.20
2023-05-16T20:13:05.223Z,1.00
2023-05-16T20:15:33.135Z,1.00
2023-05-16T20:18:02.164Z,1.55
2023-05-16T20:20:30.341Z,0.90
2023-05-16T20:22:59.564Z,0.90
2023-05-16T20:25:27.873Z,1.02
2023-05-16T20:27:55.932Z,0.80
2023-05-16T20:30:23.964Z,2.03
2023-05-16T20:32:51.877Z,0.82
2023-05-16T20:35:19.760Z,0.70
2023-05-16T20:37:47.937Z,0.70
2023-05-16T20:40:17.105Z,1.00
2023-05-16T20:42:44.947Z,2.00
2023-05-16T20:45:12.956Z,1.40
2023-05-16T20:47:40.783Z,0.70
2023-05-16T20:50:09.985Z,0.88
2023-05-16T20:52:37.936Z,1.13
2023-05-16T20:55:06.483Z,1.08
2023-05-16T20:57:35.597Z,0.88
2023-05-16T21:00:03.499Z,1.00
2023-05-16T21:02:31.323Z,0.90
2023-05-16T21:05:02.157Z,1.50
2023-05-16T21:07:37.849Z,0.77
2023-05-16T21:10:06.729Z,1.00
2023-05-16T21:12:35.906Z,1.33
2023-05-16T21:15:03.878Z,0.98
2023-05-16T21:17:32.207Z,0.80
2023-05-16T21:20:00.235Z,1.15
2023-05-16T21:22:28.141Z,0.98
2023-05-16T21:24:55.938Z,0.80
2023-05-16T21:27:24.503Z,0.90
2023-05-16T21:29:53.794Z,0.82
2023-05-16T21:32:21.574Z,0.90
2023-05-16T21:34:49.368Z,1.20
2023-05-16T21:37:17.183Z,0.90
2023-05-16T21:39:44.966Z,0.90
2023-05-16T21:42:12.867Z,0.70
2023-05-16T21:44:40.690Z,1.20
2023-05-16T21:47:09.828Z,2.20
2023-05-16T21:49:37.807Z,2.25
2023-05-16T21:52:07.523Z,1.02
2023-05-16T21:54:35.687Z,1.33
2023-05-16T21:57:03.424Z,1.92
2023-05-16T21:59:31.257Z,1.00
2023-05-16T22:01:59.181Z,1.17
2023-05-16T22:04:28.377Z,1.00
2023-05-16T22:06:56.235Z,2.65
2023-05-16T22:09:24.076Z,1.05
2023-05-16T22:11:51.844Z,0.90
2023-05-16T22:14:19.631Z,0.85
2023-05-16T22:16:47.569Z,0.57
2023-05-16T22:19:15.435Z,0.88
2023-05-16T22:21:44.623Z,1.27
2023-05-16T22:24:12.489Z,1.02
2023-05-16T22:26:40.448Z,0.93
2023-05-16T22:29:08.197Z,0.90
2023-05-16T22:31:35.971Z,1.25
2023-05-16T22:34:03.914Z,0.80
2023-05-16T22:36:32.176Z,1.30
2023-05-16T22:39:01.360Z,1.45
2023-05-16T22:41:29.600Z,1.17
2023-05-16T22:43:57.403Z,1.10
2023-05-16T22:46:25.554Z,0.75
2023-05-16T22:48:53.466Z,0.80
2023-05-16T22:51:21.322Z,0.90
2023-05-16T22:53:49.303Z,1.27
2023-05-16T22:56:18.478Z,1.05
2023-05-16T22:58:46.246Z,0.70
2023-05-16T23:01:14.070Z,0.82
2023-05-16T23:03:41.938Z,1.00
2023-05-16T23:06:09.817Z,0.93
2023-05-16T23:08:37.548Z,1.92
2023-05-16T23:11:05.463Z,1.65
2023-05-16T23:13:34.600Z,2.80
2023-05-16T23:16:02.411Z,1.30
2023-05-16T23:18:30.328Z,1.30
2023-05-16T23:20:58.257Z,1.40
2023-05-16T23:23:26.004Z,0.70
2023-05-16T23:25:53.756Z,1.17
2023-05-16T23:28:21.877Z,1.15
2023-05-16T23:30:51.166Z,1.08
2023-05-16T23:33:19.176Z,0.93
2023-05-16T23:35:47.045Z,0.73
2023-05-16T23:38:14.798Z,1.85
2023-05-16T23:40:42.540Z,1.25
2023-05-16T23:43:10.372Z,0.90
2023-05-16T23:45:38.179Z,1.27
2023-05-16T23:48:07.964Z,1.00
2023-05-16T23:50:35.850Z,1.05
2023-05-16T23:53:03.957Z,1.40
2023-05-16T23:55:31.728Z,0.90
2023-05-16T23:57:59.525Z,1.10
